Flight Track Log - Related Links

Times and Time Zones

All times are in EST time to prevent confusion due to time zone crossing. See the N328SR flight status page for this flight to view local times or setup timezone preferences in your user account.

Time Position Orientation Groundspeed Altitude Reporting Facility
EST Latitude Longitude Course Direction KTS MPH feet Rate Location/Type
Fri 04:09:30 PM 41.3114 -72.0656 342° North 94 108 1,100  Level Boston Center
Fri 04:10:31 PM 41.3350 -72.0975 315° West 130 150 2,300 1,213 Climbing Boston Center
Fri 04:11:04 PM 41.3531 -72.1094 334° Northwest 123 142 3,000 1,333 Climbing Boston Center
Fri 04:11:25 PM 41.3667 -72.1122 351° North 128 147 3,500 984 Climbing Boston Center
Fri 04:12:05 PM 41.3856 -72.1178 348° North 119 137 4,000 537 Climbing Boston Center
Fri 04:12:32 PM 41.4078 -72.1217 353° North 164 189 4,100 100 Climbing Boston Center
Fri 04:13:05 PM 41.4300 -72.1061 28° Northeast 166 191 4,100 492 Level Boston Center
Fri 04:13:33 PM 41.4494 -72.0886 34° Northeast 199 229 4,600 787 Climbing Boston Center
Fri 04:14:06 PM 41.4719 -72.0656 38° Northeast 174 200 4,900 455 Climbing Boston Center
Fri 04:14:39 PM 41.4972 -72.0575 13° North 185 213 5,100 375 Climbing Boston Center
Fri 04:15:00 PM 41.6096 -72.1392 342° North  Level Estimated
Fri 04:15:10 PM 41.5203 -72.0475 18° North 180 207 5,300  Level Boston Center
Fri 04:15:34 PM 41.5408 -72.0361 23° Northeast 176 203 5,600 700 Climbing Boston Center
Fri 04:16:10 PM 41.5611 -72.0247 23° Northeast 170 196 6,000 762 Climbing Boston Center
Fri 04:16:37 PM 41.5822 -72.0142 21° North 161 185 6,400 700 Climbing Boston Center
Fri 04:17:10 PM 41.6094 -72.0025 18° North 163 188 6,700 448 Climbing Boston Center
Fri 04:17:44 PM 41.6294 -72.0058 353° North 148 170 6,900 197 Climbing Boston Center
Fri 04:18:11 PM 41.6506 -72.0133 345° North 154 177 6,900 100 Level Boston Center
Fri 04:18:44 PM 41.6731 -72.0250 339° North 161 185 7,000 281 Climbing Boston Center
Fri 04:19:15 PM 41.6925 -72.0308 347° North 157 181 7,200 492 Climbing Boston Center
Fri 04:19:45 PM 41.7150 -72.0408 342° North 160 184 7,500 600 Climbing Boston Center
Fri 04:20:15 PM 41.7358 -72.0481 345° North 162 186 7,800 593 Climbing Boston Center
Fri 04:21:16 PM 41.7825 -72.0650 345° North 163 188 8,400 590 Climbing Boston Center
Fri 04:22:17 PM 41.8253 -72.0844 341° North 169 194 9,000 629 Climbing Boston Center
Fri 04:23:20 PM 41.8739 -72.1036 344° North 173 199 9,700 629 Climbing Boston Center
Fri 04:24:21 PM 41.9186 -72.1194 345° North 168 193 10,300 344 Climbing Boston Center
Fri 04:25:22 PM 41.9650 -72.1378 344° North 176 203 10,400 49 Climbing Boston Center
Fri 04:26:23 PM 42.0186 -72.1594 343° North 189 217 10,400  Level Boston Center
Fri 04:27:23 PM 42.0703 -72.1797 344° North 196 226 10,400  Level Boston Center
Fri 04:28:27 PM 42.1225 -72.2000 344° North 197 227 10,400  Level Boston Center
Fri 04:29:27 PM 42.1756 -72.2197 345° North 198 228 10,400 100 Level Boston Center
Fri 04:30:27 PM 42.2292 -72.2408 344° North 186 214 10,600  Climbing Boston Center
Fri 04:31:31 PM 42.2842 -72.2622 344° North 206 237 10,400 -48 Descending Boston Center
Fri 04:32:31 PM 42.3378 -72.2842 343° North 204 235 10,500  Climbing Boston Center
Fri 04:33:32 PM 42.3922 -72.3033 345° North 207 238 10,400 -50 Descending Boston Center
Fri 04:34:32 PM 42.4456 -72.3256 343° North 204 235 10,400  Level Boston Center
Fri 04:35:36 PM 42.4997 -72.3469 344° North 203 234 10,400  Level Boston Center
Fri 04:36:36 PM 42.5542 -72.3681 344° North 203 234 10,400  Level Boston Center
Fri 04:37:36 PM 42.6086 -72.3900 343° North 205 236 10,400  Level Boston Center
Fri 04:38:37 PM 42.6717 -72.4150 344° North 202 232 10,400  Level Boston Center
Fri 04:39:41 PM 42.7228 -72.4364 343° North 198 228 10,400  Level Boston Center
Fri 04:40:41 PM 42.7744 -72.4558 345° North 195 224 10,400  Level Boston Center
Fri 04:41:42 PM 42.8258 -72.4758 344° North 194 223 10,400  Level Boston Center
Fri 04:42:43 PM 42.8767 -72.4967 343° North 193 222 10,400  Level Boston Center
Fri 04:43:44 PM 42.9275 -72.5161 344° North 190 219 10,400  Level Boston Center
Fri 04:44:44 PM 42.9772 -72.5361 344° North 188 216 10,400  Level Boston Center
Fri 04:45:48 PM 43.0275 -72.5567 343° North 189 217 10,400  Level Boston Center
Fri 04:46:48 PM 43.0781 -72.5769 344° North 189 217 10,400  Level Boston Center
Fri 04:47:49 PM 43.1378 -72.6008 344° North 187 215 10,400  Level Boston Center
Fri 04:48:52 PM 43.1892 -72.6228 343° North 192 221 10,400  Level Boston Center
Fri 04:49:53 PM 43.2400 -72.6425 344° North 191 220 10,400  Level Boston Center
Fri 04:50:54 PM 43.2919 -72.6650 343° North 194 223 10,400  Level Boston Center
Fri 04:51:55 PM 43.3447 -72.6839 345° North 196 226 10,400  Level Boston Center
Fri 04:52:55 PM 43.3981 -72.7072 342° North 199 229 10,400 50 Level Boston Center
Fri 04:53:55 PM 43.4506 -72.7292 343° North 198 228 10,500  Climbing Boston Center
Fri 04:54:59 PM 43.5033 -72.7486 345° North 197 227 10,400 -194 Descending Boston Center
Fri 04:55:59 PM 43.5564 -72.7711 343° North 198 228 10,100 -99 Descending Boston Center
Fri 04:57:00 PM 43.6178 -72.7978 343° North 195 224 10,200 50 Climbing Boston Center
Fri 04:58:00 PM 43.6669 -72.8167 344° North 187 215 10,200 -248 Level Boston Center
Fri 04:59:01 PM 43.7208 -72.8417 341° North 195 224 9,700 -432 Descending Boston Center
Fri 05:00:05 PM 43.7736 -72.8636 343° North 200 230 9,300 -288 Descending Boston Center
Fri 05:01:06 PM 43.8300 -72.8850 345° North 196 226 9,100 -98 Descending Boston Center
Fri 05:02:07 PM 43.8794 -72.9056 343° North 190 219 9,100 -295 Level Boston Center
Fri 05:03:08 PM 43.9325 -72.9261 344° North 199 229 8,500 -694 Descending Boston Center
Fri 05:04:08 PM 43.9917 -72.9472 346° North 203 234 7,700 -595 Descending Boston Center
Fri 05:05:09 PM 44.0408 -72.9739 339° North 195 224 7,300 -192 Descending Boston Center
Fri 05:06:13 PM 44.0886 -72.9931 344° North 184 212 7,300 -387 Level Boston Center
Fri 05:07:13 PM 44.1444 -73.0161 343° North 192 221 6,500 -700 Descending Boston Center
Fri 05:08:13 PM 44.1981 -73.0378 344° North 202 232 5,900 -545 Descending Boston Center
Fri 05:09:14 PM 44.2486 -73.0589 343° North 194 223 5,400 -290 Descending Boston Center
Fri 05:10:17 PM 44.2953 -73.0925 333° Northwest 173 199 5,300 -339 Descending Boston Center
Fri 05:11:18 PM 44.3283 -73.1381 315° West 170 196 4,700 -1,041 Descending Boston Center
Fri 05:12:18 PM 44.3803 -73.1469 353° North 191 220 3,200 -1,289 Descending Boston Center
Fri 05:13:19 PM 44.4400 -73.1475 360° North 199 229 2,100 -492 Descending Boston Center
Fri 05:14:20 PM 44.4850 -73.1558 352° North 149 171 2,200 288 Climbing Boston Center
Fri 05:15:24 PM 44.5233 -73.1606 355° North 151 174 2,700 -288 Climbing Boston Center
Fri 05:16:25 PM 44.5053 -73.1425 145° Southeast 136 157 1,600 -496 Descending Boston Center
Fri 05:17:25 PM 44.5300 -73.1508 346° North 139 160 1,700 -149 Climbing Boston Center
Fri 05:18:26 PM 44.5042 -73.1578 191° South 112 129 1,300 -581 Descending Boston Center
Fri 05:19:29 PM 44.4756 -73.1539 174° South 97 112 500 -762 Descending Boston Center

Login

Don't have an account? Register now (free) for customized features, flight alerts, and more!